Terminal Aerodrome Forecast
Issued by NWS

Home | Current Version | Previous Version | Text Only | Print | Product List | Glossary On
Versions: 1 2 3 4 5 6 7 8 9 10 11 12 13 14
022
FTUS43 KFGF 111720
TAFTVF
TAF
KTVF 111720Z 1118/1218 18003KT P6SM BKN040
     FM112000 30009KT P6SM OVC025
     FM120100 32008KT P6SM OVC050
     FM120300 33013KT P6SM BKN250=

USA.gov is the U.S. government's official web portal to all federal, state and local government web resources and services.